createdAt,value
2018-03-21T00:00:43.521Z,102689.58
2018-03-21T00:03:10.965Z,102696.57
2018-03-21T00:05:38.428Z,102693.92
2018-03-21T00:08:05.884Z,102693.39
2018-03-21T00:10:33.445Z,102698.59
2018-03-21T00:13:00.902Z,102697.70
2018-03-21T00:15:28.381Z,102701.70
2018-03-21T00:17:55.837Z,102694.32
2018-03-21T00:20:23.336Z,102706.54
2018-03-21T00:22:50.786Z,102706.91
2018-03-21T00:25:18.266Z,102701.61
2018-03-21T00:27:45.722Z,102700.02
2018-03-21T00:30:13.206Z,102706.53
2018-03-21T00:32:40.670Z,102701.37
2018-03-21T00:35:08.153Z,102699.27
2018-03-21T00:37:35.606Z,102708.34
2018-03-21T00:40:03.090Z,102703.65
2018-03-21T00:42:30.550Z,102704.87
2018-03-21T00:44:58.018Z,102708.30
2018-03-21T00:47:25.473Z,102703.06
2018-03-21T00:49:52.946Z,102701.61
2018-03-21T00:52:20.412Z,102700.41
2018-03-21T00:54:47.881Z,102702.19
2018-03-21T00:57:15.341Z,102699.61
2018-03-21T00:59:42.818Z,102703.36
2018-03-21T01:02:11.251Z,102709.80
2018-03-21T01:04:38.738Z,102716.36
2018-03-21T01:07:06.196Z,102705.20
2018-03-21T01:09:33.677Z,102711.30
2018-03-21T01:12:01.143Z,102709.27
2018-03-21T01:14:28.617Z,102702.47
2018-03-21T01:16:56.077Z,102704.19
2018-03-21T01:19:23.549Z,102707.27
2018-03-21T01:21:50.999Z,102707.88
2018-03-21T01:24:18.485Z,102715.59
2018-03-21T01:26:46.467Z,102709.98
2018-03-21T01:29:13.997Z,102707.81
2018-03-21T01:31:42.476Z,102699.34
2018-03-21T01:34:09.928Z,102690.53
2018-03-21T01:36:37.394Z,102705.23
2018-03-21T01:39:04.849Z,102696.16
2018-03-21T01:41:32.322Z,102693.11
2018-03-21T01:43:59.820Z,102696.58
2018-03-21T01:46:27.273Z,102698.66
2018-03-21T01:48:54.744Z,102692.62
2018-03-21T01:51:22.193Z,102694.23
2018-03-21T01:53:49.669Z,102686.27
2018-03-21T01:56:17.980Z,102692.73
2018-03-21T01:58:45.467Z,102694.33
2018-03-21T02:01:12.930Z,102685.30
2018-03-21T02:03:40.407Z,102692.27
2018-03-21T02:06:07.896Z,102688.36
2018-03-21T02:08:35.352Z,102687.11
2018-03-21T02:11:02.809Z,102688.78
2018-03-21T02:13:30.267Z,102686.71
2018-03-21T02:15:57.734Z,102684.09
2018-03-21T02:18:25.192Z,102685.30
2018-03-21T02:20:52.658Z,102679.84
2018-03-21T02:23:20.115Z,102684.25
2018-03-21T02:25:47.585Z,102676.61
2018-03-21T02:28:15.034Z,102675.58
2018-03-21T02:30:42.506Z,102676.86
2018-03-21T02:33:09.972Z,102669.52
2018-03-21T02:35:37.438Z,102679.97
2018-03-21T02:38:04.889Z,102680.94
2018-03-21T02:40:32.365Z,102674.46
2018-03-21T02:42:59.828Z,102677.47
2018-03-21T02:45:27.300Z,102670.84
2018-03-21T02:47:54.750Z,102674.05
2018-03-21T02:50:22.217Z,102677.19
2018-03-21T02:52:49.674Z,102675.00
2018-03-21T02:55:17.143Z,102682.36
2018-03-21T02:57:44.600Z,102678.92
2018-03-21T03:00:12.071Z,102684.70
2018-03-21T03:02:39.517Z,102681.95
2018-03-21T03:05:06.982Z,102682.41
2018-03-21T03:07:34.437Z,102682.03
2018-03-21T03:10:01.896Z,102683.63
2018-03-21T03:12:29.349Z,102684.91
2018-03-21T03:14:56.814Z,102678.61
2018-03-21T03:17:24.264Z,102678.69
2018-03-21T03:19:52.205Z,102683.42
2018-03-21T03:22:19.690Z,102678.27
2018-03-21T03:24:47.149Z,102682.57
2018-03-21T03:27:15.602Z,102680.34
2018-03-21T03:29:43.078Z,102681.23
2018-03-21T03:32:10.545Z,102677.83
2018-03-21T03:34:38.024Z,102669.73
2018-03-21T03:37:05.498Z,102674.00
2018-03-21T03:39:32.961Z,102672.77
2018-03-21T03:42:00.425Z,102673.19
2018-03-21T03:44:27.897Z,102680.44
2018-03-21T03:46:55.357Z,102673.11
2018-03-21T03:49:22.849Z,102675.76
2018-03-21T03:51:50.324Z,102665.89
2018-03-21T03:54:17.804Z,102673.61
2018-03-21T03:56:45.266Z,102666.34
2018-03-21T03:59:12.745Z,102670.19
2018-03-21T04:01:40.206Z,102665.39
2018-03-21T04:04:07.669Z,102661.84
2018-03-21T04:06:35.118Z,102664.41
2018-03-21T04:09:02.598Z,102665.77
2018-03-21T04:11:30.044Z,102665.34
2018-03-21T04:13:57.512Z,102660.23
2018-03-21T04:16:25.872Z,102666.75
2018-03-21T04:18:53.348Z,102660.77
2018-03-21T04:21:20.797Z,102660.20
2018-03-21T04:23:48.263Z,102665.88
2018-03-21T04:26:15.723Z,102661.13
2018-03-21T04:28:43.193Z,102658.14
2018-03-21T04:31:10.684Z,102656.87
2018-03-21T04:33:38.164Z,102651.31
2018-03-21T04:36:05.618Z,102652.59
2018-03-21T04:38:33.093Z,102648.75
2018-03-21T04:41:00.548Z,102656.42
2018-03-21T04:43:28.044Z,102654.66
2018-03-21T04:45:55.498Z,102654.25
2018-03-21T04:48:22.974Z,102657.23
2018-03-21T04:50:50.440Z,102658.05
2018-03-21T04:53:17.917Z,102655.48
2018-03-21T04:55:45.370Z,102652.74
2018-03-21T04:58:12.846Z,102648.95
2018-03-21T05:00:40.302Z,102649.02
2018-03-21T05:03:08.773Z,102650.81
2018-03-21T05:05:36.236Z,102654.28
2018-03-21T05:08:03.724Z,102643.50
2018-03-21T05:10:31.177Z,102639.95
2018-03-21T05:12:59.556Z,102633.95
2018-03-21T05:15:27.009Z,102627.11
2018-03-21T05:17:54.489Z,102633.55
2018-03-21T05:20:21.962Z,102636.06
2018-03-21T05:22:49.413Z,102631.76
2018-03-21T05:25:16.884Z,102632.63
2018-03-21T05:27:44.348Z,102630.46
2018-03-21T05:30:11.825Z,102639.88
2018-03-21T05:32:39.279Z,102636.02
2018-03-21T05:35:06.749Z,102628.09
2018-03-21T05:37:34.217Z,102629.45
2018-03-21T05:40:03.706Z,102630.75
2018-03-21T05:42:31.163Z,102639.32
2018-03-21T05:44:58.638Z,102644.78
2018-03-21T05:47:26.086Z,102645.33
2018-03-21T05:49:53.569Z,102649.55
2018-03-21T05:52:21.018Z,102651.84
2018-03-21T05:54:48.485Z,102657.83
2018-03-21T05:57:15.944Z,102647.50
2018-03-21T05:59:43.414Z,102650.14
2018-03-21T06:02:10.878Z,102637.98
2018-03-21T06:04:38.341Z,102630.61
2018-03-21T06:07:07.778Z,102631.06
2018-03-21T06:09:35.255Z,102640.12
2018-03-21T06:12:02.734Z,102631.68
2018-03-21T06:14:30.209Z,102636.75
2018-03-21T06:16:57.662Z,102627.47
2018-03-21T06:19:27.107Z,102629.91
2018-03-21T06:21:54.591Z,102624.66
2018-03-21T06:24:23.054Z,102630.65
2018-03-21T06:26:50.512Z,102637.84
2018-03-21T06:29:18.003Z,102639.86
2018-03-21T06:31:45.481Z,102638.12
2018-03-21T06:34:12.942Z,102641.48
2018-03-21T06:36:40.405Z,102637.81
2018-03-21T06:39:07.871Z,102638.69
2018-03-21T06:41:35.322Z,102634.22
2018-03-21T06:44:02.794Z,102635.41
2018-03-21T06:46:30.300Z,102637.80
2018-03-21T06:48:57.749Z,102631.02
2018-03-21T06:51:25.221Z,102633.23
2018-03-21T06:53:52.693Z,102634.59
2018-03-21T06:56:20.172Z,102639.03
2018-03-21T06:58:47.654Z,102628.59
2018-03-21T07:01:15.109Z,102629.66
2018-03-21T07:03:42.565Z,102633.14
2018-03-21T07:06:10.008Z,102624.55
2018-03-21T07:08:37.582Z,102625.73
2018-03-21T07:11:05.024Z,102619.11
2018-03-21T07:13:44.402Z,102628.39
2018-03-21T07:16:23.701Z,102627.25
2018-03-21T07:18:51.168Z,102638.45
2018-03-21T07:21:18.618Z,102645.17
2018-03-21T07:23:46.096Z,102640.39
2018-03-21T07:26:13.550Z,102637.07
2018-03-21T07:28:41.989Z,102633.37
2018-03-21T07:31:09.518Z,102634.80
2018-03-21T07:33:36.938Z,102629.64
2018-03-21T07:36:05.369Z,102624.01
2018-03-21T07:38:32.826Z,102627.02
2018-03-21T07:41:00.278Z,102628.48
2018-03-21T07:43:27.736Z,102624.72
2018-03-21T07:45:55.189Z,102628.76
2018-03-21T07:48:22.657Z,102627.66
2018-03-21T07:50:50.104Z,102612.38
2018-03-21T07:53:17.574Z,102622.79
2018-03-21T07:55:45.034Z,102617.34
2018-03-21T07:58:13.421Z,102608.38
2018-03-21T08:00:40.865Z,102614.76
2018-03-21T08:03:09.266Z,102609.20
2018-03-21T08:05:36.780Z,102610.81
2018-03-21T08:08:05.181Z,102605.94
2018-03-21T08:10:32.660Z,102608.11
2018-03-21T08:13:00.100Z,102610.27
2018-03-21T08:15:27.561Z,102612.78
2018-03-21T08:17:55.006Z,102614.95
2018-03-21T08:20:22.507Z,102612.33
2018-03-21T08:22:49.965Z,102611.33
2018-03-21T08:25:17.419Z,102624.26
2018-03-21T08:27:44.865Z,102620.19
2018-03-21T08:30:12.332Z,102615.53
2018-03-21T08:32:39.789Z,102616.53
2018-03-21T08:35:07.260Z,102609.14
2018-03-21T08:37:34.718Z,102608.69
2018-03-21T08:40:03.157Z,102608.27
2018-03-21T08:42:30.602Z,102614.90
2018-03-21T08:44:58.092Z,102607.08
2018-03-21T08:47:26.598Z,102605.30
2018-03-21T08:49:54.126Z,102603.97
2018-03-21T08:52:21.569Z,102604.94
2018-03-21T08:54:50.962Z,102603.11
2018-03-21T08:57:18.412Z,102596.75
2018-03-21T08:59:45.876Z,102604.93
2018-03-21T09:02:13.322Z,102617.58
2018-03-21T09:04:40.813Z,102613.65
2018-03-21T09:07:09.471Z,102615.49
2018-03-21T09:09:36.957Z,102611.83
2018-03-21T09:12:04.386Z,102619.77
2018-03-21T09:14:31.859Z,102616.10
2018-03-21T09:16:59.291Z,102621.95
2018-03-21T09:19:26.735Z,102613.94
2018-03-21T09:21:54.241Z,102614.16
2018-03-21T09:24:21.711Z,102610.56
2018-03-21T09:26:50.149Z,102608.98
2018-03-21T09:29:17.612Z,102606.53
2018-03-21T09:31:46.077Z,102603.66
2018-03-21T09:34:13.544Z,102608.55
2018-03-21T09:36:41.003Z,102599.94
2018-03-21T09:39:08.530Z,102586.64
2018-03-21T09:41:35.941Z,102583.79
2018-03-21T09:44:04.415Z,102576.17
2018-03-21T09:46:31.877Z,102588.16
2018-03-21T09:48:59.345Z,102573.09
2018-03-21T09:51:26.802Z,102572.86
2018-03-21T09:53:54.270Z,102578.10
2018-03-21T09:56:21.721Z,102556.45
2018-03-21T09:58:49.260Z,102566.80
2018-03-21T10:01:16.710Z,102563.22
2018-03-21T10:03:45.197Z,102553.19
2018-03-21T10:06:13.663Z,102562.42
2018-03-21T10:08:41.162Z,102554.23
2018-03-21T10:11:09.591Z,102570.61
2018-03-21T10:13:37.072Z,102563.36
2018-03-21T10:16:05.537Z,102547.52
2018-03-21T10:18:32.996Z,102549.96
2018-03-21T10:21:00.468Z,102546.75
2018-03-21T10:23:27.932Z,102556.56
2018-03-21T10:25:55.388Z,102550.87
2018-03-21T10:28:23.769Z,102562.28
2018-03-21T10:30:51.223Z,102542.80
2018-03-21T10:33:18.694Z,102541.21
2018-03-21T10:35:46.149Z,102526.77
2018-03-21T10:38:13.625Z,102528.48
2018-03-21T10:40:41.074Z,102525.42
2018-03-21T10:43:08.546Z,102528.20
2018-03-21T10:45:36.003Z,102523.33
2018-03-21T10:48:03.478Z,102517.33
2018-03-21T10:50:30.937Z,102516.96
2018-03-21T10:52:59.342Z,102527.48
2018-03-21T10:55:26.794Z,102504.13
2018-03-21T10:57:54.253Z,102514.00
2018-03-21T11:00:21.700Z,102512.91
2018-03-21T11:02:54.901Z,102513.89
2018-03-21T11:05:22.363Z,102515.77
2018-03-21T11:07:49.843Z,102521.11
2018-03-21T11:10:17.388Z,102513.47
2018-03-21T11:12:44.838Z,102515.11
2018-03-21T11:15:12.311Z,102526.70
2018-03-21T11:17:39.780Z,102528.77
2018-03-21T11:20:07.242Z,102534.59
2018-03-21T11:22:34.713Z,102537.47
2018-03-21T11:25:02.168Z,102530.64
2018-03-21T11:27:29.625Z,102526.09
2018-03-21T11:29:57.094Z,102527.73
2018-03-21T11:32:25.484Z,102516.28
2018-03-21T11:34:52.950Z,102509.99
2018-03-21T11:37:20.414Z,102515.69
2018-03-21T11:39:47.890Z,102519.77
2018-03-21T11:42:15.343Z,102508.82
2018-03-21T11:44:42.805Z,102510.09
2018-03-21T11:47:10.252Z,102507.64
2018-03-21T11:49:37.713Z,102504.06
2018-03-21T11:52:05.188Z,102512.30
2018-03-21T11:54:32.662Z,102506.25
2018-03-21T11:57:00.109Z,102518.73
2018-03-21T11:59:28.552Z,102532.72
2018-03-21T12:01:56.026Z,102502.84
2018-03-21T12:04:23.488Z,102512.94
2018-03-21T12:06:50.943Z,102501.69
2018-03-21T12:09:19.417Z,102495.72
2018-03-21T12:11:46.863Z,102514.45
2018-03-21T12:14:15.233Z,102492.52
2018-03-21T12:16:42.679Z,102484.91
2018-03-21T12:19:10.146Z,102486.20
2018-03-21T12:21:37.627Z,102473.62
2018-03-21T12:24:05.094Z,102489.31
2018-03-21T12:26:32.547Z,102478.80
2018-03-21T12:29:00.009Z,102473.87
2018-03-21T12:31:27.469Z,102471.95
2018-03-21T12:33:56.971Z,102467.16
2018-03-21T12:36:24.422Z,102466.58
2018-03-21T12:38:51.889Z,102472.55
2018-03-21T12:41:19.511Z,102456.43
2018-03-21T12:43:46.980Z,102459.95
2018-03-21T12:46:15.437Z,102458.59
2018-03-21T12:48:42.927Z,102436.81
2018-03-21T12:51:10.383Z,102476.99
2018-03-21T12:53:37.857Z,102459.23
2018-03-21T12:56:05.382Z,102452.89
2018-03-21T12:58:32.822Z,102458.29
2018-03-21T13:01:00.328Z,102445.78
2018-03-21T13:03:27.792Z,102439.48
2018-03-21T13:05:55.255Z,102410.50
2018-03-21T13:08:22.780Z,102433.05
2018-03-21T13:10:50.228Z,102441.38
2018-03-21T13:13:18.721Z,102446.55
2018-03-21T13:15:46.164Z,102435.61
2018-03-21T13:18:13.614Z,102426.92
2018-03-21T13:20:41.065Z,102455.36
2018-03-21T13:23:08.531Z,102435.00
2018-03-21T13:25:35.978Z,102435.61
2018-03-21T13:28:04.340Z,102432.60
2018-03-21T13:30:31.797Z,102431.97
2018-03-21T13:32:59.256Z,102431.41
2018-03-21T13:35:26.723Z,102421.42
2018-03-21T13:37:54.189Z,102402.51
2018-03-21T13:40:21.642Z,102417.52
2018-03-21T13:42:49.105Z,102415.81
2018-03-21T13:45:16.557Z,102425.80
2018-03-21T13:47:44.030Z,102424.31
2018-03-21T13:50:12.498Z,102417.02
2018-03-21T13:52:39.976Z,102419.39
2018-03-21T13:55:07.640Z,102419.41
2018-03-21T13:57:36.014Z,102413.17
2018-03-21T14:00:03.475Z,102409.97
2018-03-21T14:02:30.933Z,102415.84
2018-03-21T14:04:58.381Z,102416.57
2018-03-21T14:07:25.833Z,102413.78
2018-03-21T14:09:54.197Z,102412.06
2018-03-21T14:12:22.601Z,102410.06
2018-03-21T14:14:50.059Z,102404.30
2018-03-21T14:17:18.413Z,102404.22
2018-03-21T14:19:45.901Z,102401.07
2018-03-21T14:22:13.430Z,102402.31
2018-03-21T14:24:41.815Z,102405.28
2018-03-21T14:27:09.271Z,102395.34
2018-03-21T14:29:36.733Z,102396.15
2018-03-21T14:32:04.173Z,102401.68
2018-03-21T14:34:31.635Z,102399.48
2018-03-21T14:37:00.039Z,102398.23
2018-03-21T14:39:27.521Z,102401.50
2018-03-21T14:41:55.949Z,102391.08
2018-03-21T14:44:23.434Z,102397.36
2018-03-21T14:46:50.980Z,102390.75
2018-03-21T14:49:19.461Z,102391.59
2018-03-21T14:51:48.852Z,102395.19
2018-03-21T14:54:16.321Z,102393.60
2018-03-21T14:56:44.777Z,102372.66
2018-03-21T14:59:12.224Z,102383.16
2018-03-21T15:01:39.689Z,102380.97
2018-03-21T15:04:07.153Z,102378.87
2018-03-21T15:06:34.619Z,102372.65
2018-03-21T15:09:02.102Z,102365.37
2018-03-21T15:11:29.559Z,102353.77
2018-03-21T15:13:57.033Z,102360.47
2018-03-21T15:16:24.501Z,102360.62
2018-03-21T15:18:51.982Z,102356.25
2018-03-21T15:21:19.450Z,102357.16
2018-03-21T15:23:46.918Z,102370.91
2018-03-21T15:26:14.426Z,102356.63
2018-03-21T15:28:42.873Z,102357.11
2018-03-21T15:31:10.321Z,102360.55
2018-03-21T15:33:37.856Z,102351.08
2018-03-21T15:36:06.285Z,102351.89
2018-03-21T15:38:33.769Z,102354.11
2018-03-21T15:41:01.236Z,102347.31
2018-03-21T15:43:28.726Z,102346.56
2018-03-21T15:45:56.201Z,102352.00
2018-03-21T15:48:23.679Z,102345.63
2018-03-21T15:50:51.224Z,102333.14
2018-03-21T15:53:18.712Z,102340.23
2018-03-21T15:55:46.186Z,102336.20
2018-03-21T15:58:13.674Z,102330.10
2018-03-21T16:00:41.171Z,102337.64
2018-03-21T16:03:08.695Z,102337.07
2018-03-21T16:05:37.124Z,102339.09
2018-03-21T16:08:04.593Z,102330.88
2018-03-21T16:10:32.041Z,102329.88
2018-03-21T16:12:59.501Z,102322.58
2018-03-21T16:15:26.970Z,102326.47
2018-03-21T16:17:54.494Z,102322.45
2018-03-21T16:20:21.984Z,102322.94
2018-03-21T16:22:49.499Z,102319.10
2018-03-21T16:25:17.853Z,102322.06
2018-03-21T16:27:45.371Z,102336.62
2018-03-21T16:30:12.844Z,102321.91
2018-03-21T16:32:40.365Z,102315.75
2018-03-21T16:35:07.838Z,102324.14
2018-03-21T16:37:35.290Z,102318.71
2018-03-21T16:40:02.765Z,102315.20
2018-03-21T16:42:30.219Z,102313.19
2018-03-21T16:44:57.697Z,102312.00
2018-03-21T16:47:25.149Z,102315.08
2018-03-21T16:49:53.409Z,102314.92
2018-03-21T16:52:20.913Z,102309.91
2018-03-21T16:54:48.405Z,102312.14
2018-03-21T16:57:15.866Z,102304.63
2018-03-21T16:59:43.344Z,102296.20
2018-03-21T17:02:10.793Z,102300.56
2018-03-21T17:04:38.260Z,102305.70
2018-03-21T17:07:05.724Z,102306.66
2018-03-21T17:09:33.194Z,102312.11
2018-03-21T17:12:00.645Z,102307.00
2018-03-21T17:14:28.157Z,102299.10
2018-03-21T17:16:55.596Z,102303.34
2018-03-21T17:19:23.051Z,102297.35
2018-03-21T17:21:50.493Z,102299.05
2018-03-21T17:24:17.952Z,102297.09
2018-03-21T17:26:45.397Z,102295.60
2018-03-21T17:29:12.845Z,102295.47
2018-03-21T17:31:40.301Z,102283.98
2018-03-21T17:34:07.748Z,102287.72
2018-03-21T17:36:35.208Z,102258.91
2018-03-21T17:39:02.652Z,102268.11
2018-03-21T17:41:30.120Z,102275.19
2018-03-21T17:43:58.478Z,102271.47
2018-03-21T17:46:25.946Z,102266.55
2018-03-21T17:48:54.396Z,102272.80
2018-03-21T17:51:21.854Z,102266.50
2018-03-21T17:53:49.309Z,102264.37
2018-03-21T17:56:16.785Z,102260.90
2018-03-21T17:58:44.268Z,102260.80
2018-03-21T18:01:11.738Z,102261.48
2018-03-21T18:03:39.189Z,102262.47
2018-03-21T18:06:06.703Z,102263.16
2018-03-21T18:08:34.177Z,102267.70
2018-03-21T18:11:01.645Z,102259.29
2018-03-21T18:13:29.102Z,102259.14
2018-03-21T18:15:56.609Z,102269.50
2018-03-21T18:18:24.071Z,102263.69
2018-03-21T18:20:51.549Z,102265.48
2018-03-21T18:23:19.023Z,102268.61
2018-03-21T18:25:46.482Z,102265.98
2018-03-21T18:28:13.937Z,102272.67
2018-03-21T18:30:42.316Z,102264.88
2018-03-21T18:33:09.785Z,102256.27
2018-03-21T18:35:37.258Z,102253.72
2018-03-21T18:38:04.706Z,102240.84
2018-03-21T18:40:33.110Z,102248.81
2018-03-21T18:43:02.484Z,102251.32
2018-03-21T18:45:29.963Z,102242.88
2018-03-21T18:47:57.413Z,102245.59
2018-03-21T18:50:24.877Z,102241.45
2018-03-21T18:52:52.322Z,102231.11
2018-03-21T18:55:19.786Z,102235.12
2018-03-21T18:57:47.232Z,102239.98
2018-03-21T19:00:14.693Z,102235.72
2018-03-21T19:02:42.150Z,102234.08
2018-03-21T19:05:09.621Z,102236.47
2018-03-21T19:07:37.074Z,102222.25
2018-03-21T19:10:04.538Z,102222.16
2018-03-21T19:12:32.013Z,102228.42
2018-03-21T19:14:59.473Z,102216.11
2018-03-21T19:17:26.949Z,102216.08
2018-03-21T19:19:54.593Z,102212.98
2018-03-21T19:22:22.044Z,102210.73
2018-03-21T19:24:49.513Z,102205.94
2018-03-21T19:27:16.961Z,102192.25
2018-03-21T19:29:44.425Z,102189.86
2018-03-21T19:32:11.880Z,102185.05
2018-03-21T19:34:39.345Z,102185.48
2018-03-21T19:37:06.826Z,102184.45
2018-03-21T19:39:34.328Z,102180.41
2018-03-21T19:42:01.780Z,102179.43
2018-03-21T19:44:29.258Z,102174.56
2018-03-21T19:46:56.712Z,102173.23
2018-03-21T19:49:24.190Z,102170.94
2018-03-21T19:51:51.636Z,102172.55
2018-03-21T19:54:19.109Z,102159.48
2018-03-21T19:56:46.575Z,102156.48
2018-03-21T19:59:14.115Z,102155.13
2018-03-21T20:01:41.578Z,102154.63
2018-03-21T20:04:09.053Z,102153.23
2018-03-21T20:06:36.576Z,102164.86
2018-03-21T20:09:05.045Z,102145.53
2018-03-21T20:11:32.501Z,102142.23
2018-03-21T20:13:59.971Z,102127.33
2018-03-21T20:16:27.428Z,102127.33
2018-03-21T20:18:54.895Z,102130.60
2018-03-21T20:21:22.353Z,102115.56
2018-03-21T20:23:49.821Z,102115.72
2018-03-21T20:26:17.292Z,102105.60
2018-03-21T20:28:44.798Z,102104.52
2018-03-21T20:31:12.303Z,102088.77
2018-03-21T20:33:39.783Z,102090.88
2018-03-21T20:36:07.252Z,102079.18
2018-03-21T20:38:34.741Z,102068.90
2018-03-21T20:41:02.222Z,102059.44
2018-03-21T20:43:29.673Z,102058.57
2018-03-21T20:45:58.129Z,102049.91
2018-03-21T20:48:26.597Z,102051.39
2018-03-21T20:50:54.081Z,102053.50
2018-03-21T20:53:22.529Z,102048.72
2018-03-21T20:55:49.993Z,102043.14
2018-03-21T20:58:17.446Z,102045.78
2018-03-21T21:00:44.917Z,102035.75
2018-03-21T21:03:12.370Z,102024.44
2018-03-21T21:05:39.848Z,102019.16
2018-03-21T21:08:07.313Z,102005.82
2018-03-21T21:10:34.791Z,102005.03
2018-03-21T21:13:02.237Z,102009.67
2018-03-21T21:15:29.713Z,101998.48
2018-03-21T21:17:57.152Z,101990.34
2018-03-21T21:20:24.631Z,101986.12
2018-03-21T21:22:53.045Z,101988.28
2018-03-21T21:25:20.558Z,101985.22
2018-03-21T21:27:48.005Z,101977.23
2018-03-21T21:30:16.839Z,101965.13
2018-03-21T21:32:44.350Z,101971.38
2018-03-21T21:35:11.883Z,101962.30
2018-03-21T21:37:39.334Z,101964.77
2018-03-21T21:40:06.797Z,101959.55
2018-03-21T21:42:34.273Z,101950.89
2018-03-21T21:45:01.733Z,101955.79
2018-03-21T21:47:29.193Z,101951.48
2018-03-21T21:49:56.638Z,101939.44
2018-03-21T21:52:24.101Z,101944.37
2018-03-21T21:54:51.551Z,101933.86
2018-03-21T21:57:19.038Z,101924.89
2018-03-21T21:59:46.497Z,101919.48
2018-03-21T22:02:13.941Z,101910.26
2018-03-21T22:04:41.459Z,101909.75
2018-03-21T22:07:08.953Z,101912.37
2018-03-21T22:09:36.415Z,101901.37
2018-03-21T22:12:03.958Z,101889.12
2018-03-21T22:14:31.424Z,101893.83
2018-03-21T22:16:58.856Z,101888.95
2018-03-21T22:19:26.352Z,101878.97
2018-03-21T22:21:53.813Z,101880.80
2018-03-21T22:24:21.291Z,101868.13
2018-03-21T22:26:48.756Z,101871.97
2018-03-21T22:29:16.236Z,101866.92
2018-03-21T22:31:43.705Z,101862.34
2018-03-21T22:34:11.161Z,101843.47
2018-03-21T22:36:38.605Z,101851.67
2018-03-21T22:39:06.080Z,101850.11
2018-03-21T22:41:33.561Z,101845.62
2018-03-21T22:44:01.043Z,101838.09
2018-03-21T22:46:28.498Z,101826.35
2018-03-21T22:48:56.871Z,101821.47
2018-03-21T22:51:24.368Z,101821.27
2018-03-21T22:53:51.829Z,101807.39
2018-03-21T22:56:19.293Z,101794.69
2018-03-21T22:58:46.769Z,101799.77
2018-03-21T23:01:14.285Z,101787.94
2018-03-21T23:03:41.745Z,101787.94
2018-03-21T23:06:09.189Z,101778.73
2018-03-21T23:08:36.666Z,101784.66
2018-03-21T23:11:04.179Z,101774.66
2018-03-21T23:13:31.653Z,101769.42
2018-03-21T23:16:00.026Z,101774.81
2018-03-21T23:18:27.513Z,101767.20
2018-03-21T23:20:54.963Z,101780.69
2018-03-21T23:23:22.424Z,101769.09
2018-03-21T23:25:49.882Z,101769.06
2018-03-21T23:28:17.378Z,101764.43
2018-03-21T23:30:44.829Z,101761.91
2018-03-21T23:33:12.304Z,101750.39
2018-03-21T23:35:39.750Z,101748.20
2018-03-21T23:38:07.219Z,101735.16
2018-03-21T23:40:34.696Z,101738.93
2018-03-21T23:43:02.177Z,101721.41
2018-03-21T23:45:29.630Z,101715.14
2018-03-21T23:47:57.107Z,101723.40
2018-03-21T23:50:24.565Z,101723.07
2018-03-21T23:52:52.042Z,101716.80
2018-03-21T23:55:19.505Z,101709.09
2018-03-21T23:57:47.066Z,101688.16
